createdAt,value
2023-03-23T00:02:18.672Z,418.00
2023-03-23T00:06:18.660Z,419.00
2023-03-23T00:10:18.713Z,418.00
2023-03-23T00:14:18.723Z,420.00
2023-03-23T00:18:18.627Z,416.00
2023-03-23T00:22:18.582Z,416.00
2023-03-23T00:26:18.549Z,418.00
2023-03-23T00:30:18.540Z,420.00
2023-03-23T00:34:18.510Z,416.00
2023-03-23T00:38:18.478Z,416.00
2023-03-23T00:42:18.687Z,417.00
2023-03-23T00:46:18.658Z,419.00
2023-03-23T00:50:22.254Z,424.00
2023-03-23T00:54:19.584Z,423.00
2023-03-23T00:58:18.616Z,418.00
2023-03-23T01:02:18.862Z,419.00
2023-03-23T01:06:18.816Z,417.00
2023-03-23T01:10:18.765Z,415.00
2023-03-23T01:14:18.704Z,411.00
2023-03-23T01:18:18.875Z,417.00
2023-03-23T01:22:19.834Z,421.00
2023-03-23T01:26:18.843Z,421.00
2023-03-23T01:30:19.061Z,418.00
2023-03-23T01:34:19.243Z,418.00
2023-03-23T01:38:19.447Z,421.00
2023-03-23T01:42:19.660Z,424.00
2023-03-23T01:46:19.844Z,426.00
2023-03-23T01:50:20.051Z,428.00
2023-03-23T01:54:20.252Z,428.00
2023-03-23T01:58:20.416Z,425.00
2023-03-23T02:02:20.624Z,427.00
2023-03-23T02:06:20.798Z,427.00
2023-03-23T02:10:20.969Z,428.00
2023-03-23T02:14:21.106Z,425.00
2023-03-23T02:18:21.306Z,423.00
2023-03-23T02:22:21.469Z,424.00
2023-03-23T02:26:21.669Z,425.00
2023-03-23T02:30:21.845Z,427.00
2023-03-23T02:34:22.013Z,424.00
2023-03-23T02:38:22.171Z,420.00
2023-03-23T02:42:22.439Z,420.00
2023-03-23T02:46:22.588Z,422.00
2023-03-23T02:50:22.745Z,426.00
2023-03-23T02:54:22.876Z,421.00
2023-03-23T02:58:23.044Z,416.00
2023-03-23T03:02:23.183Z,416.00
2023-03-23T03:06:23.334Z,415.00
2023-03-23T03:10:23.473Z,416.00
2023-03-23T03:14:23.649Z,417.00
2023-03-23T03:18:23.814Z,416.00
2023-03-23T03:22:23.947Z,414.00
2023-03-23T03:26:24.117Z,416.00
2023-03-23T03:30:24.326Z,416.00
2023-03-23T03:34:24.492Z,413.00
2023-03-23T03:38:24.706Z,415.00
2023-03-23T03:42:24.843Z,412.00
2023-03-23T03:46:24.978Z,415.00
2023-03-23T03:50:25.121Z,416.00
2023-03-23T03:54:25.324Z,419.00
2023-03-23T03:58:25.478Z,425.00
2023-03-23T04:02:25.599Z,427.00
2023-03-23T04:06:25.764Z,428.00
2023-03-23T04:10:32.600Z,429.00
2023-03-23T04:14:26.853Z,429.00
2023-03-23T04:18:25.817Z,431.00
2023-03-23T04:22:25.982Z,433.00
2023-03-23T04:26:26.149Z,433.00
2023-03-23T04:30:26.311Z,431.00
2023-03-23T04:34:26.491Z,424.00
2023-03-23T04:38:26.649Z,430.00
2023-03-23T04:42:26.803Z,432.00
2023-03-23T04:46:26.961Z,435.00
2023-03-23T04:50:27.112Z,430.00
2023-03-23T04:54:27.267Z,428.00
2023-03-23T04:58:28.042Z,431.00
2023-03-23T05:02:29.310Z,427.00
2023-03-23T05:06:27.705Z,425.00
2023-03-23T05:10:27.805Z,426.00
2023-03-23T05:14:27.976Z,428.00
2023-03-23T05:18:28.052Z,426.00
2023-03-23T05:22:28.521Z,426.00
2023-03-23T05:26:28.498Z,431.00
2023-03-23T05:30:28.493Z,434.00
2023-03-23T05:34:28.602Z,434.00
2023-03-23T05:38:28.961Z,436.00
2023-03-23T05:42:28.975Z,429.00
2023-03-23T05:46:29.132Z,430.00
2023-03-23T05:50:29.303Z,428.00
2023-03-23T05:54:29.522Z,431.00
2023-03-23T05:58:29.476Z,434.00
2023-03-23T06:02:29.430Z,436.00
2023-03-23T06:06:29.391Z,438.00
2023-03-23T06:10:29.473Z,433.00
2023-03-23T06:14:29.475Z,435.00
2023-03-23T06:18:29.319Z,427.00
2023-03-23T06:22:29.238Z,432.00
2023-03-23T06:26:29.217Z,433.00
2023-03-23T06:30:29.214Z,446.00
2023-03-23T06:34:29.144Z,511.00
2023-03-23T06:38:29.536Z,588.00
2023-03-23T06:42:29.515Z,692.00
2023-03-23T06:46:29.056Z,718.00
2023-03-23T06:50:28.984Z,765.00
2023-03-23T06:54:28.977Z,770.00
2023-03-23T06:58:29.063Z,774.00
2023-03-23T07:02:29.166Z,785.00
2023-03-23T07:06:29.282Z,778.00
2023-03-23T07:10:29.518Z,807.00
2023-03-23T07:14:29.542Z,845.00
2023-03-23T07:18:30.053Z,843.00
2023-03-23T07:22:30.050Z,843.00
2023-03-23T07:26:30.006Z,849.00
2023-03-23T07:30:30.037Z,841.00
2023-03-23T07:34:29.780Z,837.00
2023-03-23T07:38:30.020Z,878.00
2023-03-23T07:42:30.014Z,928.00
2023-03-23T07:46:30.033Z,944.00
2023-03-23T07:50:30.084Z,890.00
2023-03-23T07:54:29.966Z,919.00
2023-03-23T07:58:30.064Z,926.00
2023-03-23T08:02:30.275Z,914.00
2023-03-23T08:06:31.291Z,917.00
2023-03-23T08:10:30.200Z,904.00
2023-03-23T08:14:30.223Z,860.00
2023-03-23T08:18:30.275Z,889.00
2023-03-23T08:22:30.477Z,898.00
2023-03-23T08:26:30.552Z,909.00
2023-03-23T08:30:30.359Z,861.00
2023-03-23T08:34:30.565Z,944.00
2023-03-23T08:38:30.340Z,622.00
2023-03-23T08:42:30.275Z,588.00
2023-03-23T08:46:30.208Z,532.00
2023-03-23T08:50:30.185Z,528.00
2023-03-23T08:54:30.577Z,509.00
2023-03-23T08:58:30.096Z,502.00
2023-03-23T09:02:30.563Z,493.00
2023-03-23T09:06:30.063Z,512.00
2023-03-23T09:10:29.985Z,510.00
2023-03-23T09:14:29.955Z,505.00
2023-03-23T09:18:29.917Z,523.00
2023-03-23T09:22:30.075Z,649.00
2023-03-23T09:26:30.018Z,706.00
2023-03-23T09:30:30.157Z,737.00
2023-03-23T09:34:30.135Z,717.00
2023-03-23T09:38:30.094Z,681.00
2023-03-23T09:42:30.058Z,744.00
2023-03-23T09:46:30.005Z,674.00
2023-03-23T09:50:30.072Z,635.00
2023-03-23T09:54:30.115Z,616.00
2023-03-23T09:58:30.579Z,770.00
2023-03-23T10:02:29.895Z,733.00
2023-03-23T10:06:29.863Z,729.00
2023-03-23T10:10:30.114Z,642.00
2023-03-23T10:14:30.093Z,710.00
2023-03-23T10:18:30.098Z,676.00
2023-03-23T10:22:29.701Z,644.00
2023-03-23T10:26:30.107Z,644.00
2023-03-23T10:30:30.087Z,681.00
2023-03-23T10:34:30.107Z,769.00
2023-03-23T10:38:30.096Z,753.00
2023-03-23T10:42:29.599Z,673.00
2023-03-23T10:46:32.170Z,629.00
2023-03-23T10:50:29.549Z,532.00
2023-03-23T10:54:29.609Z,635.00
2023-03-23T10:58:29.473Z,521.00
2023-03-23T11:02:29.830Z,622.00
2023-03-23T11:06:29.601Z,660.00
2023-03-23T11:10:29.330Z,678.00
2023-03-23T11:14:29.316Z,524.00
2023-03-23T11:18:29.255Z,643.00
2023-03-23T11:22:29.686Z,702.00
2023-03-23T11:26:29.639Z,706.00
2023-03-23T11:30:29.625Z,667.00
2023-03-23T11:34:29.156Z,659.00
2023-03-23T11:38:29.126Z,655.00
2023-03-23T11:42:29.131Z,651.00
2023-03-23T11:46:29.006Z,628.00
2023-03-23T11:50:28.949Z,614.00
2023-03-23T11:54:28.935Z,600.00
2023-03-23T11:58:29.138Z,581.00
2023-03-23T12:02:29.134Z,571.00
2023-03-23T12:06:29.623Z,557.00
2023-03-23T12:10:40.571Z,546.00
2023-03-23T12:14:36.595Z,541.00
2023-03-23T12:18:30.621Z,537.00
2023-03-23T12:22:29.660Z,514.00
2023-03-23T12:26:29.297Z,523.00
2023-03-23T12:30:29.242Z,527.00
2023-03-23T12:34:29.195Z,523.00
2023-03-23T12:38:29.221Z,518.00
2023-03-23T12:42:29.191Z,511.00
2023-03-23T12:46:29.169Z,510.00
2023-03-23T12:50:29.148Z,506.00
2023-03-23T12:54:29.063Z,503.00
2023-03-23T12:58:29.036Z,505.00
2023-03-23T13:02:28.987Z,500.00
2023-03-23T13:06:32.748Z,501.00
2023-03-23T13:10:28.952Z,496.00
2023-03-23T13:14:28.875Z,495.00
2023-03-23T13:18:28.847Z,484.00
2023-03-23T13:22:28.789Z,474.00
2023-03-23T13:26:28.857Z,458.00
2023-03-23T13:30:28.785Z,463.00
2023-03-23T13:34:28.970Z,458.00
2023-03-23T13:38:29.138Z,454.00
2023-03-23T13:42:29.329Z,453.00
2023-03-23T13:46:29.587Z,448.00
2023-03-23T13:50:29.712Z,448.00
2023-03-23T13:54:29.885Z,448.00
2023-03-23T13:58:30.190Z,452.00
2023-03-23T14:02:30.710Z,441.00
2023-03-23T14:06:30.400Z,443.00
2023-03-23T14:10:30.680Z,442.00
2023-03-23T14:14:30.730Z,439.00
2023-03-23T14:18:30.758Z,442.00
2023-03-23T14:22:30.850Z,444.00
2023-03-23T14:26:30.907Z,445.00
2023-03-23T14:30:31.222Z,441.00
2023-03-23T14:34:31.129Z,440.00
2023-03-23T14:38:31.703Z,442.00
2023-03-23T14:42:31.395Z,437.00
2023-03-23T14:46:31.457Z,431.00
2023-03-23T14:50:32.270Z,424.00
2023-03-23T14:54:31.703Z,423.00
2023-03-23T14:58:32.566Z,423.00
2023-03-23T15:02:31.771Z,424.00
2023-03-23T15:06:31.776Z,416.00
2023-03-23T15:10:31.798Z,415.00
2023-03-23T15:14:31.773Z,414.00
2023-03-23T15:18:31.795Z,416.00
2023-03-23T15:22:31.830Z,410.00
2023-03-23T15:26:31.806Z,420.00
2023-03-23T15:30:31.765Z,413.00
2023-03-23T15:34:31.786Z,415.00
2023-03-23T15:38:31.825Z,419.00
2023-03-23T15:42:31.792Z,417.00
2023-03-23T15:46:31.878Z,411.00
2023-03-23T15:50:31.786Z,406.00
2023-03-23T15:54:31.775Z,403.00
2023-03-23T15:58:31.797Z,408.00
2023-03-23T16:02:31.905Z,406.00
2023-03-23T16:06:31.820Z,406.00
2023-03-23T16:10:31.830Z,407.00
2023-03-23T16:14:31.818Z,409.00
2023-03-23T16:18:31.866Z,406.00
2023-03-23T16:22:31.866Z,398.00
2023-03-23T16:26:31.936Z,397.00
2023-03-23T16:30:32.035Z,400.00
2023-03-23T16:34:32.258Z,396.00
2023-03-23T16:38:32.237Z,397.00
2023-03-23T16:42:32.200Z,399.00
2023-03-23T16:46:32.357Z,399.00
2023-03-23T16:50:32.356Z,396.00
2023-03-23T16:54:32.535Z,398.00
2023-03-23T16:58:32.568Z,395.00
2023-03-23T17:02:32.773Z,395.00
2023-03-23T17:06:32.832Z,399.00
2023-03-23T17:10:32.914Z,399.00
2023-03-23T17:14:33.031Z,398.00
2023-03-23T17:18:33.199Z,396.00
2023-03-23T17:22:33.305Z,399.00
2023-03-23T17:26:33.442Z,394.00
2023-03-23T17:30:33.566Z,396.00
2023-03-23T17:34:33.717Z,395.00
2023-03-23T17:38:33.838Z,394.00
2023-03-23T17:42:33.986Z,398.00
2023-03-23T17:46:34.206Z,397.00
2023-03-23T17:50:34.300Z,398.00
2023-03-23T17:54:34.447Z,400.00
2023-03-23T17:58:34.682Z,401.00
2023-03-23T18:02:34.869Z,401.00
2023-03-23T18:06:34.911Z,398.00
2023-03-23T18:10:35.093Z,400.00
2023-03-23T18:14:35.271Z,400.00
2023-03-23T18:18:35.446Z,397.00
2023-03-23T18:22:35.643Z,399.00
2023-03-23T18:26:35.831Z,396.00
2023-03-23T18:30:36.002Z,398.00
2023-03-23T18:34:36.191Z,396.00
2023-03-23T18:38:38.124Z,400.00
2023-03-23T18:42:36.581Z,398.00
2023-03-23T18:46:36.832Z,403.00
2023-03-23T18:50:36.990Z,405.00
2023-03-23T18:54:37.169Z,401.00
2023-03-23T18:58:37.387Z,401.00
2023-03-23T19:02:37.659Z,400.00
2023-03-23T19:06:38.314Z,398.00
2023-03-23T19:10:38.028Z,401.00
2023-03-23T19:14:38.207Z,399.00
2023-03-23T19:18:38.430Z,401.00
2023-03-23T19:22:38.660Z,399.00
2023-03-23T19:26:38.877Z,402.00
2023-03-23T19:30:39.115Z,404.00
2023-03-23T19:34:39.154Z,407.00
2023-03-23T19:38:39.011Z,415.00
2023-03-23T19:42:40.272Z,408.00
2023-03-23T19:46:39.062Z,406.00
2023-03-23T19:50:38.892Z,408.00
2023-03-23T19:54:39.179Z,405.00
2023-03-23T19:58:39.025Z,405.00
2023-03-23T20:02:39.018Z,410.00
2023-03-23T20:06:39.043Z,402.00
2023-03-23T20:10:39.774Z,404.00
2023-03-23T20:14:38.849Z,400.00
2023-03-23T20:18:38.919Z,405.00
2023-03-23T20:22:38.840Z,402.00
2023-03-23T20:26:38.796Z,402.00
2023-03-23T20:30:38.824Z,402.00
2023-03-23T20:34:38.878Z,403.00
2023-03-23T20:38:39.005Z,399.00
2023-03-23T20:42:38.985Z,399.00
2023-03-23T20:46:38.931Z,397.00
2023-03-23T20:50:38.907Z,396.00
2023-03-23T20:54:38.917Z,401.00
2023-03-23T20:58:38.861Z,403.00
2023-03-23T21:02:38.792Z,406.00
2023-03-23T21:06:38.741Z,400.00
2023-03-23T21:10:38.707Z,404.00
2023-03-23T21:14:38.670Z,399.00
2023-03-23T21:18:38.625Z,396.00
2023-03-23T21:22:38.709Z,397.00
2023-03-23T21:26:38.929Z,398.00
2023-03-23T21:30:39.078Z,404.00
2023-03-23T21:34:39.333Z,406.00
2023-03-23T21:38:39.445Z,404.00
2023-03-23T21:42:39.528Z,403.00
2023-03-23T21:46:39.399Z,405.00
2023-03-23T21:50:39.382Z,408.00
2023-03-23T21:54:39.300Z,410.00
2023-03-23T21:58:39.294Z,413.00
2023-03-23T22:02:39.253Z,412.00
2023-03-23T22:06:39.201Z,408.00
2023-03-23T22:10:39.149Z,410.00
2023-03-23T22:14:39.165Z,410.00
2023-03-23T22:18:39.076Z,410.00
2023-03-23T22:22:39.024Z,419.00
2023-03-23T22:26:38.988Z,414.00
2023-03-23T22:30:38.950Z,418.00
2023-03-23T22:34:38.920Z,416.00
2023-03-23T22:38:38.870Z,410.00
2023-03-23T22:42:38.862Z,412.00
2023-03-23T22:46:38.898Z,415.00
2023-03-23T22:50:38.958Z,416.00
2023-03-23T22:54:38.991Z,413.00
2023-03-23T22:58:39.030Z,412.00
2023-03-23T23:02:39.095Z,412.00
2023-03-23T23:06:39.176Z,413.00
2023-03-23T23:10:39.295Z,412.00
2023-03-23T23:14:39.340Z,412.00
2023-03-23T23:18:39.361Z,407.00
2023-03-23T23:22:39.435Z,406.00
2023-03-23T23:26:39.469Z,406.00
2023-03-23T23:30:39.554Z,406.00
2023-03-23T23:34:39.576Z,409.00
2023-03-23T23:38:39.646Z,407.00
2023-03-23T23:42:39.617Z,406.00
2023-03-23T23:46:39.643Z,403.00
2023-03-23T23:50:39.647Z,407.00
2023-03-23T23:54:39.623Z,406.00
2023-03-23T23:58:39.633Z,410.00
